createdAt,value
2018-07-31T00:00:28.642Z,0.00
2018-07-31T00:01:28.629Z,0.00
2018-07-31T00:02:28.637Z,0.00
2018-07-31T00:03:28.666Z,0.00
2018-07-31T00:04:28.609Z,0.00
2018-07-31T00:05:28.599Z,0.00
2018-07-31T00:06:28.573Z,0.00
2018-07-31T00:07:28.563Z,0.00
2018-07-31T00:08:28.570Z,0.00
2018-07-31T00:09:28.588Z,0.00
2018-07-31T00:10:28.584Z,0.00
2018-07-31T00:11:28.528Z,0.00
2018-07-31T00:12:28.531Z,0.00
2018-07-31T00:13:28.502Z,0.00
2018-07-31T00:14:28.495Z,0.00
2018-07-31T00:15:28.500Z,0.00
2018-07-31T00:16:28.471Z,0.00
2018-07-31T00:17:28.466Z,0.00
2018-07-31T00:18:28.456Z,0.00
2018-07-31T00:19:28.456Z,0.00
2018-07-31T00:20:28.457Z,0.00
2018-07-31T00:21:28.443Z,0.00
2018-07-31T00:22:28.416Z,0.00
2018-07-31T00:23:28.417Z,0.00
2018-07-31T00:24:28.411Z,0.00
2018-07-31T00:25:28.387Z,0.00
2018-07-31T00:26:28.392Z,0.00
2018-07-31T00:27:28.367Z,0.00
2018-07-31T00:28:28.355Z,0.00
2018-07-31T00:29:28.340Z,0.00
2018-07-31T00:30:28.335Z,0.00
2018-07-31T00:31:28.344Z,0.00
2018-07-31T00:32:28.312Z,0.00
2018-07-31T00:33:28.299Z,0.00
2018-07-31T00:34:28.296Z,0.00
2018-07-31T00:35:28.277Z,0.00
2018-07-31T00:36:28.292Z,0.00
2018-07-31T00:37:28.260Z,0.00
2018-07-31T00:38:28.250Z,0.00
2018-07-31T00:39:28.242Z,0.00
2018-07-31T00:40:28.229Z,0.00
2018-07-31T00:41:28.221Z,0.00
2018-07-31T00:42:28.223Z,0.00
2018-07-31T00:43:28.228Z,0.00
2018-07-31T00:44:28.207Z,0.00
2018-07-31T00:45:28.175Z,0.00
2018-07-31T00:46:28.179Z,0.00
2018-07-31T00:47:28.169Z,0.00
2018-07-31T00:48:28.150Z,0.00
2018-07-31T00:49:28.133Z,0.00
2018-07-31T00:50:28.126Z,0.00
2018-07-31T00:51:28.163Z,0.00
2018-07-31T00:52:28.133Z,0.00
2018-07-31T00:53:28.097Z,0.00
2018-07-31T00:54:28.086Z,0.00
2018-07-31T00:55:28.075Z,0.00
2018-07-31T00:56:28.060Z,0.00
2018-07-31T00:57:28.056Z,0.00
2018-07-31T00:58:28.062Z,0.00
2018-07-31T00:59:28.048Z,0.00
2018-07-31T01:00:28.017Z,0.00
2018-07-31T01:01:28.014Z,0.00
2018-07-31T01:02:28.002Z,0.00
2018-07-31T01:03:28.011Z,0.00
2018-07-31T01:04:27.992Z,0.00
2018-07-31T01:05:27.970Z,0.00
2018-07-31T01:06:27.956Z,0.00
2018-07-31T01:07:27.955Z,0.00
2018-07-31T01:08:27.938Z,0.00
2018-07-31T01:09:27.944Z,0.00
2018-07-31T01:10:27.918Z,0.00
2018-07-31T01:11:27.906Z,0.00
2018-07-31T01:12:27.896Z,0.00
2018-07-31T01:13:27.889Z,0.00
2018-07-31T01:14:27.889Z,0.00
2018-07-31T01:15:27.865Z,0.00
2018-07-31T01:16:27.856Z,0.00
2018-07-31T01:17:27.849Z,0.00
2018-07-31T01:18:27.836Z,0.00
2018-07-31T01:19:27.845Z,0.00
2018-07-31T01:20:27.811Z,0.00
2018-07-31T01:21:27.821Z,0.00
2018-07-31T01:22:27.802Z,0.00
2018-07-31T01:23:27.780Z,0.00
2018-07-31T01:24:27.775Z,0.00
2018-07-31T01:25:27.769Z,0.00
2018-07-31T01:26:27.784Z,0.00
2018-07-31T01:27:27.741Z,0.00
2018-07-31T01:28:27.730Z,0.00
2018-07-31T01:29:27.740Z,0.00
2018-07-31T01:30:27.714Z,0.00
2018-07-31T01:31:27.695Z,0.00
2018-07-31T01:32:27.737Z,0.00
2018-07-31T01:33:27.679Z,0.00
2018-07-31T01:34:27.667Z,0.00
2018-07-31T01:35:27.658Z,0.00
2018-07-31T01:36:27.645Z,0.00
2018-07-31T01:37:27.635Z,0.00
2018-07-31T01:38:27.640Z,0.00
2018-07-31T01:39:27.619Z,0.00
2018-07-31T01:40:27.623Z,0.00
2018-07-31T01:41:27.597Z,0.00
2018-07-31T01:42:27.587Z,0.00
2018-07-31T01:43:27.575Z,0.00
2018-07-31T01:44:27.568Z,0.00
2018-07-31T01:45:27.553Z,0.00
2018-07-31T01:46:27.552Z,0.00
2018-07-31T01:47:27.545Z,0.00
2018-07-31T01:48:27.522Z,0.00
2018-07-31T01:49:27.523Z,0.00
2018-07-31T01:50:27.494Z,0.00
2018-07-31T01:51:27.483Z,0.00
2018-07-31T01:52:27.503Z,0.00
2018-07-31T01:53:27.485Z,0.00
2018-07-31T01:54:27.458Z,0.00
2018-07-31T01:55:27.443Z,0.00
2018-07-31T01:56:27.439Z,0.00
2018-07-31T01:57:27.448Z,0.00
2018-07-31T01:58:27.411Z,0.00
2018-07-31T01:59:27.402Z,0.00
2018-07-31T02:00:27.397Z,0.00
2018-07-31T02:01:27.386Z,0.00
2018-07-31T02:02:27.394Z,0.00
2018-07-31T02:03:27.391Z,0.00
2018-07-31T02:04:27.357Z,0.00
2018-07-31T02:05:27.345Z,0.00
2018-07-31T02:06:27.335Z,0.00
2018-07-31T02:07:27.321Z,0.00
2018-07-31T02:08:27.327Z,0.00
2018-07-31T02:09:27.318Z,0.00
2018-07-31T02:10:27.304Z,0.00
2018-07-31T02:11:27.276Z,0.00
2018-07-31T02:12:27.265Z,0.00
2018-07-31T02:13:27.253Z,0.00
2018-07-31T02:14:27.276Z,0.00
2018-07-31T02:15:27.232Z,0.00
2018-07-31T02:16:27.225Z,0.00
2018-07-31T02:17:27.256Z,0.00
2018-07-31T02:18:27.209Z,0.00
2018-07-31T02:19:27.191Z,0.00
2018-07-31T02:20:27.194Z,0.00
2018-07-31T02:21:27.169Z,0.00
2018-07-31T02:22:27.170Z,0.00
2018-07-31T02:23:27.151Z,0.00
2018-07-31T02:24:27.141Z,0.00
2018-07-31T02:25:27.152Z,0.00
2018-07-31T02:26:27.135Z,0.00
2018-07-31T02:27:27.106Z,0.00
2018-07-31T02:28:27.133Z,0.00
2018-07-31T02:29:27.087Z,0.00
2018-07-31T02:30:27.090Z,0.00
2018-07-31T02:31:27.072Z,0.00
2018-07-31T02:32:27.048Z,0.00
2018-07-31T02:33:27.059Z,0.00
2018-07-31T02:34:27.038Z,0.00
2018-07-31T02:35:27.048Z,0.00
2018-07-31T02:36:27.022Z,0.00
2018-07-31T02:37:27.001Z,0.00
2018-07-31T02:38:26.988Z,0.00
2018-07-31T02:39:26.984Z,0.00
2018-07-31T02:40:26.994Z,0.00
2018-07-31T02:41:26.952Z,0.00
2018-07-31T02:42:26.968Z,0.00
2018-07-31T02:43:26.941Z,0.00
2018-07-31T02:44:26.928Z,0.00
2018-07-31T02:45:26.953Z,0.00
2018-07-31T02:46:26.902Z,0.00
2018-07-31T02:47:26.895Z,0.00
2018-07-31T02:48:26.886Z,0.00
2018-07-31T02:49:26.880Z,0.00
2018-07-31T02:50:26.880Z,0.00
2018-07-31T02:51:47.874Z,0.00
2018-07-31T02:52:26.841Z,0.00
2018-07-31T02:53:26.837Z,0.00
2018-07-31T02:54:26.818Z,0.00
2018-07-31T02:55:26.812Z,0.00
2018-07-31T02:56:26.827Z,0.00
2018-07-31T02:57:26.797Z,0.00
2018-07-31T02:58:26.784Z,0.00
2018-07-31T02:59:26.768Z,0.00
2018-07-31T03:00:26.754Z,0.00
2018-07-31T03:01:26.745Z,0.00
2018-07-31T03:02:26.755Z,0.00
2018-07-31T03:03:26.733Z,0.00
2018-07-31T03:04:26.712Z,0.00
2018-07-31T03:05:26.729Z,0.00
2018-07-31T03:06:26.696Z,0.00
2018-07-31T03:07:26.697Z,0.00
2018-07-31T03:08:26.688Z,0.00
2018-07-31T03:09:26.662Z,0.00
2018-07-31T03:10:26.665Z,0.00
2018-07-31T03:11:26.636Z,0.00
2018-07-31T03:12:26.644Z,0.00
2018-07-31T03:13:26.623Z,0.00
2018-07-31T03:14:26.617Z,0.00
2018-07-31T03:15:26.590Z,0.00
2018-07-31T03:16:26.583Z,0.00
2018-07-31T03:17:26.590Z,0.00
2018-07-31T03:18:26.560Z,0.00
2018-07-31T03:19:26.560Z,0.00
2018-07-31T03:20:26.553Z,0.00
2018-07-31T03:21:26.528Z,0.00
2018-07-31T03:22:26.520Z,0.00
2018-07-31T03:23:26.522Z,0.00
2018-07-31T03:24:26.496Z,0.00
2018-07-31T03:25:26.481Z,0.00
2018-07-31T03:26:26.477Z,0.00
2018-07-31T03:27:26.456Z,0.00
2018-07-31T03:28:26.466Z,0.00
2018-07-31T03:29:26.442Z,0.00
2018-07-31T03:30:26.430Z,0.00
2018-07-31T03:31:26.419Z,0.00
2018-07-31T03:32:26.410Z,0.00
2018-07-31T03:33:26.424Z,0.00
2018-07-31T03:34:26.390Z,0.00
2018-07-31T03:35:26.399Z,0.00
2018-07-31T03:36:26.386Z,0.00
2018-07-31T03:37:26.347Z,0.00
2018-07-31T03:38:26.342Z,0.00
2018-07-31T03:39:26.332Z,0.00
2018-07-31T03:40:26.337Z,0.00
2018-07-31T03:41:26.312Z,0.00
2018-07-31T03:42:26.302Z,0.00
2018-07-31T03:43:26.319Z,0.00
2018-07-31T03:44:26.276Z,0.00
2018-07-31T03:45:26.277Z,0.00
2018-07-31T03:46:26.255Z,0.00
2018-07-31T03:47:26.248Z,0.00
2018-07-31T03:48:26.232Z,0.00
2018-07-31T03:49:26.216Z,0.00
2018-07-31T03:50:26.246Z,0.00
2018-07-31T03:51:26.198Z,0.00
2018-07-31T03:52:26.188Z,0.00
2018-07-31T03:53:26.188Z,0.00
2018-07-31T03:54:26.179Z,0.00
2018-07-31T03:55:26.173Z,0.00
2018-07-31T03:56:26.209Z,0.00
2018-07-31T03:57:26.144Z,0.00
2018-07-31T03:58:26.117Z,0.00
2018-07-31T03:59:26.107Z,0.00
2018-07-31T04:00:26.110Z,0.00
2018-07-31T04:01:26.098Z,0.00
2018-07-31T04:02:26.098Z,0.00
2018-07-31T04:03:26.063Z,0.00
2018-07-31T04:04:26.058Z,0.00
2018-07-31T04:05:26.058Z,0.00
2018-07-31T04:06:26.056Z,0.00
2018-07-31T04:07:26.045Z,0.00
2018-07-31T04:08:26.014Z,0.00
2018-07-31T04:09:25.994Z,5.63
2018-07-31T04:10:25.982Z,5.63
2018-07-31T04:11:25.976Z,5.63
2018-07-31T04:12:25.976Z,5.63
2018-07-31T04:13:25.972Z,5.63
2018-07-31T04:14:25.941Z,5.63
2018-07-31T04:15:25.941Z,5.63
2018-07-31T04:16:25.929Z,5.63
2018-07-31T04:17:25.953Z,5.63
2018-07-31T04:18:25.902Z,5.63
2018-07-31T04:19:25.883Z,5.63
2018-07-31T04:20:25.877Z,5.63
2018-07-31T04:21:25.868Z,5.63
2018-07-31T04:22:25.859Z,5.63
2018-07-31T04:23:25.886Z,5.63
2018-07-31T04:24:25.854Z,11.25
2018-07-31T04:25:25.820Z,11.25
2018-07-31T04:26:25.812Z,11.25
2018-07-31T04:27:25.805Z,11.25
2018-07-31T04:28:25.811Z,11.25
2018-07-31T04:29:25.775Z,11.25
2018-07-31T04:30:25.764Z,16.88
2018-07-31T04:31:25.750Z,16.88
2018-07-31T04:32:25.745Z,16.88
2018-07-31T04:33:25.729Z,16.88
2018-07-31T04:34:25.753Z,16.88
2018-07-31T04:35:25.708Z,16.88
2018-07-31T04:36:25.721Z,22.50
2018-07-31T04:37:25.686Z,22.50
2018-07-31T04:38:25.676Z,22.50
2018-07-31T04:39:25.675Z,22.50
2018-07-31T04:40:25.674Z,22.50
2018-07-31T04:41:25.658Z,22.50
2018-07-31T04:42:25.658Z,22.50
2018-07-31T04:43:25.616Z,22.50
2018-07-31T04:44:25.612Z,22.50
2018-07-31T04:45:25.611Z,22.50
2018-07-31T04:46:25.584Z,22.50
2018-07-31T04:47:25.582Z,16.88
2018-07-31T04:48:25.569Z,16.88
2018-07-31T04:49:25.555Z,22.50
2018-07-31T04:50:25.615Z,22.50
2018-07-31T04:51:25.534Z,22.50
2018-07-31T04:52:25.525Z,22.50
2018-07-31T04:53:25.515Z,16.88
2018-07-31T04:54:25.505Z,16.88
2018-07-31T04:55:25.507Z,16.88
2018-07-31T04:56:25.483Z,16.88
2018-07-31T04:57:25.474Z,28.13
2018-07-31T04:58:25.461Z,28.13
2018-07-31T04:59:25.466Z,28.13
2018-07-31T05:00:25.455Z,22.50
2018-07-31T05:01:25.428Z,28.13
2018-07-31T05:02:25.415Z,28.13
2018-07-31T05:03:25.406Z,22.50
2018-07-31T05:04:25.401Z,22.50
2018-07-31T05:05:25.400Z,22.50
2018-07-31T05:06:25.382Z,28.13
2018-07-31T05:07:25.363Z,28.13
2018-07-31T05:08:25.350Z,33.75
2018-07-31T05:09:25.346Z,33.75
2018-07-31T05:10:25.360Z,28.13
2018-07-31T05:11:25.329Z,33.75
2018-07-31T05:12:25.308Z,33.75
2018-07-31T05:13:25.308Z,33.75
2018-07-31T05:14:25.293Z,33.75
2018-07-31T05:15:25.271Z,33.75
2018-07-31T05:16:25.279Z,33.75
2018-07-31T05:17:25.258Z,33.75
2018-07-31T05:18:25.296Z,39.38
2018-07-31T05:19:25.236Z,33.75
2018-07-31T05:20:25.220Z,33.75
2018-07-31T05:21:25.225Z,33.75
2018-07-31T05:22:25.203Z,33.75
2018-07-31T05:23:25.185Z,33.75
2018-07-31T05:24:25.176Z,33.75
2018-07-31T05:25:25.166Z,33.75
2018-07-31T05:26:25.174Z,33.75
2018-07-31T05:27:25.161Z,39.38
2018-07-31T05:28:25.135Z,39.38
2018-07-31T05:29:25.120Z,39.38
2018-07-31T05:30:25.116Z,39.38
2018-07-31T05:31:25.103Z,39.38
2018-07-31T05:32:25.150Z,39.38
2018-07-31T05:33:25.076Z,39.38
2018-07-31T05:34:25.066Z,39.38
2018-07-31T05:35:25.058Z,45.00
2018-07-31T05:36:25.041Z,45.00
2018-07-31T05:37:25.048Z,45.00
2018-07-31T05:38:25.025Z,45.00
2018-07-31T05:39:25.022Z,45.00
2018-07-31T05:40:24.999Z,50.63
2018-07-31T05:41:24.993Z,50.63
2018-07-31T05:42:24.979Z,56.25
2018-07-31T05:43:24.980Z,56.25
2018-07-31T05:44:24.958Z,61.88
2018-07-31T05:45:24.945Z,61.88
2018-07-31T05:46:24.939Z,67.50
2018-07-31T05:47:26.920Z,67.50
2018-07-31T05:48:29.910Z,73.13
2018-07-31T05:49:24.939Z,78.75
2018-07-31T05:50:24.904Z,73.13
2018-07-31T05:51:24.909Z,73.13
2018-07-31T05:52:24.892Z,67.50
2018-07-31T05:53:24.857Z,61.88
2018-07-31T05:54:24.849Z,61.88
2018-07-31T05:55:24.858Z,61.88
2018-07-31T05:56:24.830Z,67.50
2018-07-31T05:57:24.860Z,67.50
2018-07-31T05:58:24.827Z,61.88
2018-07-31T05:59:24.810Z,56.25
2018-07-31T06:00:24.814Z,50.63
2018-07-31T06:01:24.777Z,39.38
2018-07-31T06:02:24.794Z,39.38
2018-07-31T06:03:24.774Z,33.75
2018-07-31T06:04:24.748Z,33.75
2018-07-31T06:05:24.729Z,33.75
2018-07-31T06:06:24.725Z,39.38
2018-07-31T06:07:24.725Z,45.00
2018-07-31T06:08:26.450Z,56.25
2018-07-31T06:09:24.702Z,61.88
2018-07-31T06:10:24.710Z,73.13
2018-07-31T06:11:24.740Z,84.38
2018-07-31T06:12:24.678Z,84.38
2018-07-31T06:13:26.147Z,84.38
2018-07-31T06:14:24.714Z,84.38
2018-07-31T06:15:24.666Z,84.38
2018-07-31T06:16:24.641Z,84.38
2018-07-31T06:17:24.833Z,84.38
2018-07-31T06:18:24.630Z,84.38
2018-07-31T06:19:24.619Z,84.38
2018-07-31T06:20:24.615Z,84.38
2018-07-31T06:21:24.575Z,84.38
2018-07-31T06:22:24.576Z,84.38
2018-07-31T06:23:24.569Z,84.38
2018-07-31T06:24:24.574Z,78.75
2018-07-31T06:25:24.525Z,84.38
2018-07-31T06:26:24.510Z,84.38
2018-07-31T06:27:24.494Z,84.38
2018-07-31T06:28:24.509Z,78.75
2018-07-31T06:29:24.477Z,78.75
2018-07-31T06:30:24.492Z,78.75
2018-07-31T06:31:24.485Z,78.75
2018-07-31T06:32:24.487Z,73.13
2018-07-31T06:33:24.486Z,73.13
2018-07-31T06:34:24.543Z,78.75
2018-07-31T06:35:27.180Z,84.38
2018-07-31T06:36:24.442Z,84.38
2018-07-31T06:37:24.434Z,84.38
2018-07-31T06:38:24.409Z,84.38
2018-07-31T06:39:24.381Z,84.38
2018-07-31T06:40:26.984Z,78.75
2018-07-31T06:41:26.251Z,78.75
2018-07-31T06:42:58.442Z,78.75
2018-07-31T06:44:24.999Z,78.75
2018-07-31T06:45:24.328Z,67.50
2018-07-31T06:46:24.330Z,67.50
2018-07-31T06:47:24.332Z,61.88
2018-07-31T06:48:24.308Z,61.88
2018-07-31T06:49:24.487Z,67.50
2018-07-31T06:50:24.269Z,67.50
2018-07-31T06:51:24.270Z,61.88
2018-07-31T06:52:24.288Z,61.88
2018-07-31T06:53:24.255Z,67.50
2018-07-31T06:54:24.228Z,67.50
2018-07-31T06:55:24.224Z,73.13
2018-07-31T06:56:24.225Z,84.38
2018-07-31T06:57:24.217Z,78.75
2018-07-31T06:58:24.237Z,84.38
2018-07-31T06:59:24.177Z,90.00
2018-07-31T07:00:24.166Z,106.88
2018-07-31T07:01:24.171Z,106.88
2018-07-31T07:02:24.159Z,112.50
2018-07-31T07:03:24.127Z,112.50
2018-07-31T07:04:24.142Z,118.13
2018-07-31T07:05:24.114Z,106.88
2018-07-31T07:06:24.095Z,106.88
2018-07-31T07:07:24.114Z,106.88
2018-07-31T07:08:24.085Z,112.50
2018-07-31T07:09:24.144Z,123.75
2018-07-31T07:10:24.081Z,118.13
2018-07-31T07:11:24.047Z,129.38
2018-07-31T07:12:24.036Z,140.63
2018-07-31T07:13:24.039Z,146.25
2018-07-31T07:14:24.034Z,151.88
2018-07-31T07:15:24.036Z,157.50
2018-07-31T07:16:23.992Z,157.50
2018-07-31T07:17:24.020Z,168.75
2018-07-31T07:18:24.008Z,202.50
2018-07-31T07:19:23.981Z,174.38
2018-07-31T07:20:23.955Z,168.75
2018-07-31T07:21:23.964Z,163.13
2018-07-31T07:22:23.935Z,168.75
2018-07-31T07:23:23.961Z,140.63
2018-07-31T07:24:23.949Z,135.00
2018-07-31T07:25:23.920Z,168.75
2018-07-31T07:26:23.906Z,157.50
2018-07-31T07:27:23.906Z,163.13
2018-07-31T07:28:23.881Z,168.75
2018-07-31T07:29:23.887Z,185.63
2018-07-31T07:30:23.879Z,191.25
2018-07-31T07:31:23.876Z,185.63
2018-07-31T07:32:23.862Z,180.00
2018-07-31T07:33:23.863Z,174.38
2018-07-31T07:34:24.843Z,174.38
2018-07-31T07:35:23.843Z,174.38
2018-07-31T07:36:23.840Z,174.38
2018-07-31T07:37:23.799Z,168.75
2018-07-31T07:38:23.787Z,174.38
2018-07-31T07:39:23.786Z,180.00
2018-07-31T07:40:23.783Z,174.38
2018-07-31T07:41:23.782Z,157.50
2018-07-31T07:42:23.800Z,146.25
2018-07-31T07:43:23.749Z,140.63
2018-07-31T07:44:23.752Z,135.00
2018-07-31T07:45:23.733Z,135.00
2018-07-31T07:46:23.723Z,129.38
2018-07-31T07:47:23.709Z,123.75
2018-07-31T07:48:23.766Z,118.13
2018-07-31T07:49:23.723Z,123.75
2018-07-31T07:50:23.692Z,129.38
2018-07-31T07:51:23.707Z,135.00
2018-07-31T07:52:23.673Z,135.00
2018-07-31T07:53:23.673Z,118.13
2018-07-31T07:54:23.696Z,112.50
2018-07-31T07:55:23.668Z,118.13
2018-07-31T07:56:23.638Z,129.38
2018-07-31T07:57:23.612Z,151.88
2018-07-31T07:58:23.608Z,163.13
2018-07-31T07:59:23.596Z,180.00
2018-07-31T08:00:23.588Z,191.25
2018-07-31T08:01:23.601Z,191.25
2018-07-31T08:02:23.580Z,185.63
2018-07-31T08:03:23.561Z,202.50
2018-07-31T08:04:23.548Z,219.38
2018-07-31T08:05:23.552Z,230.63
2018-07-31T08:06:23.540Z,230.63
2018-07-31T08:07:23.544Z,219.38
2018-07-31T08:08:23.534Z,219.38
2018-07-31T08:09:23.528Z,208.13
2018-07-31T08:10:23.506Z,213.75
2018-07-31T08:11:23.566Z,225.00
2018-07-31T08:12:23.525Z,225.00
2018-07-31T08:13:23.470Z,230.63
2018-07-31T08:14:23.469Z,230.63
2018-07-31T08:15:23.457Z,225.00
2018-07-31T08:16:23.447Z,225.00
2018-07-31T08:17:23.460Z,241.88
2018-07-31T08:18:23.435Z,241.88
2018-07-31T08:19:23.436Z,236.25
2018-07-31T08:20:23.442Z,241.88
2018-07-31T08:21:23.416Z,241.88
2018-07-31T08:22:23.420Z,230.63
2018-07-31T08:23:23.436Z,208.13
2018-07-31T08:24:23.379Z,180.00
2018-07-31T08:25:23.378Z,157.50
2018-07-31T08:26:23.369Z,146.25
2018-07-31T08:27:23.370Z,157.50
2018-07-31T08:28:23.346Z,196.88
2018-07-31T08:29:23.343Z,247.50
2018-07-31T08:30:23.357Z,286.88
2018-07-31T08:31:23.324Z,303.75
2018-07-31T08:32:23.328Z,309.38
2018-07-31T08:33:23.327Z,270.00
2018-07-31T08:34:23.366Z,247.50
2018-07-31T08:35:23.324Z,236.25
2018-07-31T08:36:23.289Z,236.25
2018-07-31T08:37:23.289Z,208.13
2018-07-31T08:38:23.270Z,230.63
2018-07-31T08:39:23.260Z,230.63
2018-07-31T08:40:23.271Z,247.50
2018-07-31T08:41:23.285Z,253.13
2018-07-31T08:42:23.255Z,253.13
2018-07-31T08:43:23.260Z,230.63
2018-07-31T08:44:23.222Z,208.13
2018-07-31T08:45:23.224Z,202.50
2018-07-31T08:46:23.203Z,168.75
2018-07-31T08:47:23.202Z,191.25
2018-07-31T08:48:23.190Z,185.63
2018-07-31T08:49:23.197Z,191.25
2018-07-31T08:50:23.193Z,202.50
2018-07-31T08:51:23.168Z,225.00
2018-07-31T08:52:23.170Z,230.63
2018-07-31T08:53:23.169Z,202.50
2018-07-31T08:54:23.166Z,230.63
2018-07-31T08:55:23.137Z,247.50
2018-07-31T08:56:23.135Z,264.38
2018-07-31T08:57:23.123Z,270.00
2018-07-31T08:58:23.116Z,264.38
2018-07-31T08:59:23.106Z,258.75
2018-07-31T09:00:23.111Z,326.25
2018-07-31T09:01:23.092Z,303.75
2018-07-31T09:02:23.081Z,303.75
2018-07-31T09:03:23.096Z,331.88
2018-07-31T09:04:23.078Z,337.50
2018-07-31T09:05:23.071Z,393.75
2018-07-31T09:06:23.072Z,416.25
2018-07-31T09:07:23.044Z,483.75
2018-07-31T09:08:23.116Z,388.13
2018-07-31T09:09:23.033Z,748.13
2018-07-31T09:10:23.050Z,590.63
2018-07-31T09:11:23.019Z,545.63
2018-07-31T09:12:23.012Z,613.13
2018-07-31T09:13:23.013Z,433.13
2018-07-31T09:14:23.020Z,405.00
2018-07-31T09:15:23.011Z,337.50
2018-07-31T09:16:22.984Z,450.00
2018-07-31T09:17:22.983Z,444.38
2018-07-31T09:18:22.974Z,815.63
2018-07-31T09:19:22.970Z,309.38
2018-07-31T09:20:22.973Z,343.13
2018-07-31T09:21:22.965Z,270.00
2018-07-31T09:22:22.998Z,247.50
2018-07-31T09:23:22.954Z,376.88
2018-07-31T09:24:22.948Z,1130.63
2018-07-31T09:25:23.012Z,759.38
2018-07-31T09:26:22.951Z,208.13
2018-07-31T09:27:22.949Z,196.88
2018-07-31T09:28:22.935Z,236.25
2018-07-31T09:29:22.987Z,320.63
2018-07-31T09:30:22.928Z,298.13
2018-07-31T09:31:22.910Z,286.88
2018-07-31T09:32:22.906Z,264.38
2018-07-31T09:33:22.881Z,506.25
2018-07-31T09:34:22.874Z,315.00
2018-07-31T09:35:22.887Z,916.88
2018-07-31T09:36:22.918Z,2205.00
2018-07-31T09:37:22.856Z,1119.38
2018-07-31T09:38:22.845Z,444.38
2018-07-31T09:39:22.837Z,292.50
2018-07-31T09:40:22.834Z,315.00
2018-07-31T09:41:22.839Z,365.63
2018-07-31T09:42:22.831Z,1828.13
2018-07-31T09:43:22.807Z,388.13
2018-07-31T09:44:22.795Z,320.63
2018-07-31T09:45:22.807Z,714.38
2018-07-31T09:46:22.790Z,421.88
2018-07-31T09:47:22.798Z,517.50
2018-07-31T09:48:22.792Z,2520.00
2018-07-31T09:49:22.770Z,995.63
2018-07-31T09:50:22.768Z,1738.13
2018-07-31T09:51:22.754Z,2148.75
2018-07-31T09:52:22.768Z,2587.50
2018-07-31T09:53:22.774Z,883.13
2018-07-31T09:54:22.795Z,2385.00
2018-07-31T09:55:22.734Z,2323.13
2018-07-31T09:56:22.742Z,708.75
2018-07-31T09:57:22.726Z,1186.88
2018-07-31T09:58:22.721Z,3189.38
2018-07-31T09:59:22.755Z,3375.00
2018-07-31T10:00:22.722Z,1366.88
2018-07-31T10:01:22.715Z,1800.00
2018-07-31T10:02:22.701Z,1372.50
2018-07-31T10:03:22.704Z,787.50
2018-07-31T10:04:22.714Z,826.88
2018-07-31T10:05:22.745Z,1119.38
2018-07-31T10:06:22.687Z,2598.75
2018-07-31T10:07:22.690Z,2576.25
2018-07-31T10:08:22.681Z,1355.63
2018-07-31T10:09:43.696Z,2722.50
2018-07-31T10:10:22.680Z,3015.00
2018-07-31T10:11:22.673Z,2598.75
2018-07-31T10:12:22.666Z,382.50
2018-07-31T10:13:22.669Z,2964.38
2018-07-31T10:14:22.680Z,2823.75
2018-07-31T10:15:22.658Z,495.00
2018-07-31T10:16:22.665Z,219.38
2018-07-31T10:17:22.656Z,1406.25
2018-07-31T10:18:22.760Z,1715.63
2018-07-31T10:19:22.669Z,1659.38
2018-07-31T10:20:22.676Z,1873.13
2018-07-31T10:21:22.655Z,1850.63
2018-07-31T10:22:22.651Z,472.50
2018-07-31T10:23:22.654Z,309.38
2018-07-31T10:24:22.698Z,1788.75
2018-07-31T10:25:22.650Z,236.25
2018-07-31T10:26:22.658Z,506.25
2018-07-31T10:27:22.636Z,928.13
2018-07-31T10:28:22.633Z,1586.25
2018-07-31T10:29:22.634Z,1580.63
2018-07-31T10:30:22.637Z,1198.13
2018-07-31T10:31:22.644Z,680.63
2018-07-31T10:32:22.620Z,1895.63
2018-07-31T10:33:22.639Z,258.75
2018-07-31T10:34:22.620Z,1096.88
2018-07-31T10:35:22.632Z,1288.13
2018-07-31T10:36:22.653Z,1434.38
2018-07-31T10:37:22.614Z,1456.88
2018-07-31T10:38:22.618Z,472.50
2018-07-31T10:39:22.626Z,230.63
2018-07-31T10:40:22.621Z,585.00
2018-07-31T10:41:22.617Z,933.75
2018-07-31T10:42:22.608Z,410.63
2018-07-31T10:43:22.615Z,320.63
2018-07-31T10:44:22.602Z,292.50
2018-07-31T10:45:22.605Z,573.75
2018-07-31T10:46:22.619Z,1091.25
2018-07-31T10:47:22.626Z,1175.63
2018-07-31T10:48:22.594Z,495.00
2018-07-31T10:49:22.603Z,939.38
2018-07-31T10:50:22.608Z,1057.50
2018-07-31T10:51:22.596Z,630.00
2018-07-31T10:52:22.620Z,871.88
2018-07-31T10:53:22.595Z,866.25
2018-07-31T10:54:22.585Z,849.38
2018-07-31T10:55:22.605Z,849.38
2018-07-31T10:56:22.603Z,815.63
2018-07-31T10:57:22.597Z,894.38
2018-07-31T10:58:22.602Z,826.88
2018-07-31T10:59:22.596Z,815.63
2018-07-31T11:00:22.626Z,916.88
2018-07-31T11:01:22.592Z,877.50
2018-07-31T11:02:22.610Z,838.13
2018-07-31T11:03:22.581Z,832.50
2018-07-31T11:04:22.609Z,810.00
2018-07-31T11:05:22.597Z,933.75
2018-07-31T11:06:22.625Z,1006.88
2018-07-31T11:07:22.597Z,1018.13
2018-07-31T11:08:22.601Z,1018.13
2018-07-31T11:09:22.585Z,253.13
2018-07-31T11:10:22.602Z,241.88
2018-07-31T11:11:22.581Z,461.25
2018-07-31T11:12:22.583Z,1158.75
2018-07-31T11:13:22.685Z,618.75
2018-07-31T11:14:22.582Z,810.00
2018-07-31T11:15:22.587Z,843.75
2018-07-31T11:16:22.595Z,1468.13
2018-07-31T11:17:22.586Z,911.25
2018-07-31T11:18:22.604Z,624.38
2018-07-31T11:19:22.583Z,663.75
2018-07-31T11:20:22.589Z,1361.25
2018-07-31T11:21:22.677Z,1653.75
2018-07-31T11:22:22.586Z,528.75
2018-07-31T11:23:22.597Z,433.13
2018-07-31T11:24:22.588Z,303.75
2018-07-31T11:25:22.594Z,326.25
2018-07-31T11:26:22.585Z,326.25
2018-07-31T11:27:22.610Z,416.25
2018-07-31T11:28:22.582Z,748.13
2018-07-31T11:29:22.613Z,984.38
2018-07-31T11:30:22.580Z,1108.13
2018-07-31T11:31:22.581Z,495.00
2018-07-31T11:32:22.573Z,765.00
2018-07-31T11:33:22.573Z,742.50
2018-07-31T11:34:22.570Z,871.88
2018-07-31T11:35:22.591Z,427.50
2018-07-31T11:36:22.597Z,1383.75
2018-07-31T11:37:22.572Z,388.13
2018-07-31T11:38:22.602Z,1485.00
2018-07-31T11:39:22.613Z,669.38
2018-07-31T11:40:22.557Z,1918.13
2018-07-31T11:41:22.588Z,2148.75
2018-07-31T11:42:22.559Z,1035.00
2018-07-31T11:43:22.551Z,309.38
2018-07-31T11:44:22.584Z,376.88
2018-07-31T11:45:22.548Z,1074.38
2018-07-31T11:46:22.549Z,1321.88
2018-07-31T11:47:22.564Z,1108.13
2018-07-31T11:48:22.550Z,871.88
2018-07-31T11:49:22.542Z,585.00
2018-07-31T11:50:22.563Z,1580.63
2018-07-31T11:51:22.547Z,1350.00
2018-07-31T11:52:22.555Z,1653.75
2018-07-31T11:53:22.542Z,1620.00
2018-07-31T11:54:22.546Z,1794.38
2018-07-31T11:55:22.571Z,286.88
2018-07-31T11:56:22.544Z,556.88
2018-07-31T11:57:22.542Z,416.25
2018-07-31T11:58:22.539Z,264.38
2018-07-31T11:59:22.535Z,236.25
2018-07-31T12:00:22.534Z,303.75
2018-07-31T12:01:22.563Z,258.75
2018-07-31T12:02:22.548Z,264.38
2018-07-31T12:03:22.528Z,663.75
2018-07-31T12:04:22.598Z,1665.00
2018-07-31T12:05:22.529Z,1659.38
2018-07-31T12:06:22.532Z,1901.25
2018-07-31T12:07:22.540Z,1861.88
2018-07-31T12:08:22.538Z,1614.38
2018-07-31T12:09:22.522Z,213.75
2018-07-31T12:10:22.523Z,196.88
2018-07-31T12:11:22.516Z,292.50
2018-07-31T12:12:22.540Z,360.00
2018-07-31T12:13:22.532Z,483.75
2018-07-31T12:14:22.524Z,1681.88
2018-07-31T12:15:22.525Z,1833.75
2018-07-31T12:16:22.518Z,1710.00
2018-07-31T12:17:22.507Z,1811.25
2018-07-31T12:18:22.540Z,1023.75
2018-07-31T12:19:22.500Z,1254.38
2018-07-31T12:20:22.499Z,1743.75
2018-07-31T12:21:22.499Z,331.88
2018-07-31T12:22:22.496Z,933.75
2018-07-31T12:23:22.505Z,1636.88
2018-07-31T12:24:22.492Z,1738.13
2018-07-31T12:25:22.506Z,1046.25
2018-07-31T12:26:22.487Z,1867.50
2018-07-31T12:27:22.508Z,1828.13
2018-07-31T12:28:22.480Z,1738.13
2018-07-31T12:29:22.477Z,1811.25
2018-07-31T12:30:22.510Z,1794.38
2018-07-31T12:31:22.486Z,1687.50
2018-07-31T12:32:22.481Z,1681.88
2018-07-31T12:33:22.479Z,1693.13
2018-07-31T12:34:22.468Z,1794.38
2018-07-31T12:35:22.484Z,1839.38
2018-07-31T12:36:22.489Z,1890.00
2018-07-31T12:37:22.501Z,1856.25
2018-07-31T12:38:22.476Z,1839.38
2018-07-31T12:39:22.468Z,1828.13
2018-07-31T12:40:22.493Z,1822.50
2018-07-31T12:41:22.462Z,1850.63
2018-07-31T12:42:22.470Z,1833.75
2018-07-31T12:43:22.462Z,1794.38
2018-07-31T12:44:22.468Z,1828.13
2018-07-31T12:45:22.463Z,1552.50
2018-07-31T12:46:22.482Z,1456.88
2018-07-31T12:47:22.483Z,1693.13